• Join FlightAware (Why Join?)
  • Login
  • US Flag 
07:34PM EDT


 

Airport Tracker/Info


-or-


 

Live Flight TrackerFlight Track Log ✈ SWA3937 ✈ 17-Apr-2013 ✈ KPHX - KLIT

Flight Track Log - Related Links

Times and Time Zones

All times are in EDT time to prevent confusion due to time zone crossing. See the SWA3937 flight status page for this flight to view local times or setup timezone preferences in your user account.

Time Position Orientation Groundspeed Altitude Reporting Facility
EDT Latitude Longitude Course Direction KTS MPH feet Rate Location/Type
02:44PM 33.4333 -112.0333 245° Southwest 149 171 2,100  Level Phoenix TRACON
02:45PM 33.4128 -112.0861 245° Southwest 183 211 3,600 2,040 Climbing Albuquerque Center
02:46PM 33.3883 -112.1653 250° West 247 284 6,500 2,520 Climbing Albuquerque Center
02:47PM 33.3228 -112.1531 171° South 295 339 8,900 2,460 Climbing Albuquerque Center
02:48PM 33.3381 -112.0556 79° East 303 349 11,600 2,760 Climbing Albuquerque Center
02:49PM 33.3633 -111.9589 73° East 308 354 14,600 2,520 Climbing Albuquerque Center
02:50PM 33.3953 -111.8225 74° East 360 414 16,900 1,980 Climbing Albuquerque Center
02:51PM 33.4272 -111.6906 74° East 410 472 18,800 1,800 Climbing Albuquerque Center
02:52PM 33.4628 -111.5450 74° East 456 525 20,700 1,860 Climbing Albuquerque Center
02:53PM 33.4981 -111.3928 74° East 477 549 22,700 1,980 Climbing Albuquerque Center
02:54PM 33.5181 -111.2306 82° East 496 571 24,800 1,740 Climbing Albuquerque Center
02:55PM 33.5372 -111.0617 82° East 513 590 26,400 1,500 Climbing Albuquerque Center
02:56PM 33.5714 -110.8469 79° East 546 628 28,000 1,440 Climbing Albuquerque Center
02:57PM 33.6275 -110.6733 69° East 558 642 29,400 1,440 Climbing Albuquerque Center
02:58PM 33.6847 -110.4931 69° East 573 659 31,000 1,740 Climbing Albuquerque Center
02:59PM 33.7406 -110.3178 69° East 580 667 33,000 1,740 Climbing Albuquerque Center
03:00PM 33.8092 -110.1047 69° East 576 663 34,700 1,500 Climbing Albuquerque Center
03:01PM 33.8653 -109.9250 69° East 577 664 36,200 1,080 Climbing Albuquerque Center
03:02PM 33.8961 -109.7425 78° East 561 646 37,000 360 Climbing Albuquerque Center
03:03PM 33.9278 -109.5608 78° East 557 641 37,000  Level Albuquerque Center
03:04PM 33.9597 -109.3772 78° East 561 646 37,000  Level Albuquerque Center
03:05PM 33.9906 -109.1936 79° East 562 647 37,000  Level Albuquerque Center
03:06PM 34.0283 -108.9725 78° East 564 649 37,000  Level Albuquerque Center
03:07PM 34.0583 -108.7875 79° East 564 649 37,000  Level Albuquerque Center
03:08PM 34.0878 -108.6019 79° East 566 651 37,000  Level Albuquerque Center
03:09PM 34.1178 -108.4164 79° East 567 652 37,000  Level Albuquerque Center
03:10PM 34.1481 -108.2311 79° East 567 652 37,000  Level Albuquerque Center
03:11PM 34.1819 -108.0097 79° East 569 655 37,000  Level Albuquerque Center
03:12PM 34.2108 -107.8253 79° East 566 651 37,000  Level Albuquerque Center
03:14PM 34.2394 -107.6472 79° East 552 635 37,000  Level Albuquerque Center
03:15PM 34.2675 -107.4650 79° East 553 636 37,000  Level Albuquerque Center
03:16PM 34.2947 -107.2817 80° East 556 640 37,000  Level Albuquerque Center
03:17PM 34.3281 -107.0611 80° East 558 642 37,000  Level Albuquerque Center
03:18PM 34.3553 -106.8758 80° East 563 648 37,000  Level Albuquerque Center
03:19PM 34.3819 -106.6864 80° East 569 655 37,000  Level Albuquerque Center
03:20PM 34.4111 -106.4994 79° East 570 656 37,000  Level Albuquerque Center
03:21PM 34.4378 -106.3136 80° East 566 651 37,000  Level Albuquerque Center
03:22PM 34.4667 -106.1017 81° East 562 647 37,000  Level Albuquerque Center
03:23PM 34.4919 -105.9114 81° East 566 651 37,000  Level Albuquerque Center
03:24PM 34.5175 -105.7228 81° East 565 650 37,000  Level Albuquerque Center
03:25PM 34.5444 -105.5367 80° East 559 643 37,000  Level Albuquerque Center
03:26PM 34.5736 -105.3211 81° East 552 635 37,000  Level Albuquerque Center
03:27PM 34.5989 -105.1333 81° East 558 642 37,000  Level Albuquerque Center
03:28PM 34.6239 -104.9481 81° East 555 639 37,000  Level Albuquerque Center
03:29PM 34.6472 -104.7608 81° East 556 640 37,000  Level Albuquerque Center
03:30PM 34.6725 -104.5742 81° East 557 641 37,000  Level Albuquerque Center
03:31PM 34.6967 -104.3875 81° East 558 642 37,000  Level Albuquerque Center
03:32PM 34.7253 -104.1636 81° East 570 656 37,000  Level Albuquerque Center
03:33PM 34.7478 -103.9742 82° East 569 655 37,000  Level Albuquerque Center
03:34PM 34.7703 -103.7842 82° East 568 654 37,000  Level Albuquerque Center
03:35PM 34.7939 -103.5944 81° East 567 652 37,000  Level Albuquerque Center
03:36PM 34.8161 -103.4075 82° East 561 646 37,000  Level Albuquerque Center
03:37PM 34.8375 -103.2206 82° East 557 641 37,000  Level Albuquerque Center
03:38PM 34.8600 -103.0331 82° East 557 641 37,000  Level Albuquerque Center
03:39PM 34.8850 -102.8133 82° East 557 641 37,000  Level Albuquerque Center
03:40PM 34.9058 -102.6275 82° East 553 636 37,000  Level Albuquerque Center
03:41PM 34.9281 -102.4319 82° East 546 628 37,000  Level Albuquerque Center
03:42PM 34.9472 -102.2514 83° East 542 624 37,000  Level Albuquerque Center
03:43PM 34.9667 -102.0697 83° East 543 625 37,000  Level Albuquerque Center
03:44PM 34.9867 -101.8808 83° East 541 623 37,000  Level Albuquerque Center
03:46PM 35.0069 -101.7108 82° East 541 623 37,000  Level Albuquerque Center
03:47PM 35.0553 -101.5086 74° East 540 621 37,000  Level Albuquerque Center
03:48PM 35.1019 -101.3367 72° East 536 617 37,000  Level Albuquerque Center
03:49PM 35.1431 -101.1658 74° East 532 612 37,000  Level Albuquerque Center
03:50PM 35.1875 -100.9961 72° East 529 609 37,000  Level Albuquerque Center
03:51PM 35.2325 -100.8269 72° East 527 606 37,000  Level Albuquerque Center
03:52PM 35.2789 -100.6519 72° East 526 605 37,000  Level Albuquerque Center
03:53PM 35.3250 -100.4825 72° East 524 603 37,000  Level Albuquerque Center
03:54PM 35.3800 -100.2781 72° East 524 603 37,000  Level Albuquerque Center
03:55PM 35.4264 -100.1092 71° East 524 603 37,000  Level Albuquerque Center
03:56PM 35.4703 -99.9400 72° East 522 601 37,000  Level Albuquerque Center
03:57PM 35.5003 -99.7669 78° East 519 597 37,000  Level Albuquerque Center
03:58PM 35.5303 -99.5950 78° East 517 595 37,000  Level Albuquerque Center
03:58PM 35.5403 -99.5333 79° East 515 593 37,000  Level Fort Worth Center
03:59PM 35.5703 -99.3631 78° East 510 587 37,000  Level Fort Worth Center
04:00PM 35.6000 -99.1928 78° East 505 581 37,000  Level Fort Worth Center
04:01PM 35.6294 -99.0225 78° East 505 581 37,000  Level Fort Worth Center
04:02PM 35.6606 -98.8544 77° East 505 581 37,000  Level Fort Worth Center
04:03PM 35.6894 -98.6836 78° East 505 581 37,000  Level Fort Worth Center
04:04PM 35.7183 -98.5153 78° East 505 581 37,000  Level Fort Worth Center
04:05PM 35.7489 -98.3469 77° East 505 581 37,000  Level Fort Worth Center
04:07PM 35.8006 -98.0297 79° East 509 586 37,000  Level Kansas City Center
04:08PM 35.7928 -97.8583 93° East 503 579 37,000  Level Kansas City Center
04:09PM 35.7756 -97.6892 97° East 497 572 37,000  Level Kansas City Center
04:10PM 35.7586 -97.5175 97° East 500 575 37,000  Level Kansas City Center
04:11PM 35.7425 -97.3453 97° East 501 577 37,000  Level Kansas City Center
04:12PM 35.7356 -97.2806 98° East 496 571 37,000  Level Fort Worth Center
04:13PM 35.7167 -97.1069 98° East 496 571 37,000  Level Fort Worth Center
04:14PM 35.6950 -96.9203 98° East 501 577 37,000  Level Fort Worth Center
04:14PM 35.6831 -96.7942 97° East 504 580 37,000  Level Kansas City Center
04:15PM 35.6642 -96.6244 98° East 502 578 37,000  Level Kansas City Center
04:16PM 35.6456 -96.4561 98° East 498 573 37,000  Level Kansas City Center
04:18PM 35.6219 -96.2467 98° East 501 577 37,000  Level Fort Worth Center
04:19PM 35.6036 -96.0783 98° East 501 577 37,000  Level Fort Worth Center
04:20PM 35.5850 -95.9153 98° East 496 571 37,000  Level Fort Worth Center
04:21PM 35.5706 -95.7650 97° East 491 565 37,000  Level Fort Worth Center
04:23PM 35.5314 -95.4386 98° East 487 560 37,000  Level Kansas City Center
04:23PM 35.5219 -95.3669 99° East 473 544 37,000  Level Memphis Center
04:24PM 35.5014 -95.2050 99° East 473 544 37,000  Level Memphis Center
04:25PM 35.4825 -95.0458 98° East 473 544 37,000  Level Memphis Center
04:26PM 35.4656 -94.8817 97° East 473 544 37,000  Level Memphis Center
04:27PM 35.4442 -94.7200 99° East 473 544 37,000  Level Memphis Center
04:28PM 35.4247 -94.5561 98° East 479 551 37,000  Level Memphis Center
04:29PM 35.4011 -94.3892 100° East 486 559 37,000 -900 Level Memphis Center
04:30PM 35.3650 -94.2119 104° East 486 559 35,200 -2,340 Descending Memphis Center
04:31PM 35.3175 -94.0594 111° Southeast 481 554 32,300 -2,520 Descending Memphis Center
04:32PM 35.2678 -93.9097 112° Southeast 476 548 30,200 -1,980 Descending Memphis Center
04:33PM 35.2214 -93.7706 112° Southeast 460 529 28,400 -2,160 Descending Memphis Center
04:34PM 35.1753 -93.6314 112° Southeast 448 516 25,900 -2,580 Descending Memphis Center
04:35PM 35.1306 -93.4953 112° Southeast 437 503 23,300 -2,340 Descending Memphis Center
04:36PM 35.1047 -93.3597 103° East 424 488 21,300 -1,920 Descending Memphis Center
04:37PM 35.0997 -93.2200 92° East 410 472 19,500 -1,920 Descending Memphis Center
04:38PM 35.0964 -93.0878 92° East 404 465 17,500 -1,860 Descending Memphis Center
04:39PM 35.0908 -92.9558 93° East 397 457 15,800 -1,920 Descending Memphis Center
04:40PM 35.0883 -92.8822 92° East 372 428 14,400 -2,040 Descending Memphis Center
04:40PM 35.0789 -92.8361 104° East 383 441 13,800 -1,800 Descending Memphis Center
04:41PM 35.0528 -92.7744 117° Southeast 345 397 12,600 -2,040 Descending Memphis Center
04:41PM 35.0414 -92.7261 106° East 349 402 11,800 -1,800 Descending Memphis Center
04:42PM 35.0239 -92.6569 107° East 342 394 10,800 -1,500 Descending Memphis Center
04:42PM 35.0119 -92.6161 110° East 349 402 10,300 -900 Descending Memphis Center
04:43PM 34.9964 -92.5575 108° East 326 375 9,900 -1,140 Descending Memphis Center
04:43PM 34.9886 -92.5167 103° East 324 373 9,200 -1,680 Descending Memphis Center
04:44PM 34.9689 -92.4528 111° Southeast 296 341 8,200 -1,440 Descending Memphis Center
04:44PM 34.9653 -92.4197 98° East 309 356 7,800 -1,140 Descending Memphis Center
04:45PM 34.9536 -92.3739 107° East 284 327 7,200 -1,140 Descending Memphis Center
04:45PM 34.9458 -92.3281 102° East 298 343 6,700 -1,380 Descending Memphis Center
04:45PM 34.9319 -92.2847 111° Southeast 270 311 6,000 -1,380 Descending Memphis Center
04:46PM 34.9222 -92.2389 104° East 281 323 5,400 -1,200 Descending Memphis Center
04:47PM 34.9083 -92.1956 111° Southeast 263 303 4,700 -1,200 Descending Memphis Center
04:47PM 34.9047 -92.1550 96° East 271 312 4,200 -1,140 Descending Memphis Center
04:48PM 34.8697 -92.1339 154° Southeast 233 268 3,600 -1,020 Descending Memphis Center
04:48PM 34.8489 -92.1233 157° South 208 239 3,200 -540 Descending Memphis Center
04:49PM 34.8114 -92.1228 179° South 211 243 3,100 -660 Descending Memphis Center
04:50PM 34.7714 -92.1522 211° Southwest 141 162 2,200 -1,020 Descending Memphis Center
04:50PM 34.7650 -92.1622 232° Southwest 155 178 1,700 -1,500 Descending Memphis Center
04:51PM 34.7478 -92.1844 227° Southwest 123 142 700 -420 Descending Memphis Center
04:51PM 34.7250 -92.1689 151° Southeast 148 170 1,300 1,620 Climbing Memphis Center
04:55PM 34.7167 -92.2167 215° Southwest  Level FlightAware Approximate
05:02PM 34.7294 -92.2248 215° Southwest  Level Estimated
05:03PM 34.7294 -92.2248 215° Southwest  Level Estimated
05:04PM 34.7294 -92.2248 215° Southwest  Level Estimated
05:05PM 34.7294 -92.2248 215° Southwest  Level Estimated
05:06PM 34.7294 -92.2248 215° Southwest  Level Estimated